createdAt,value
2024-02-11T00:00:25.521Z,935.34
2024-02-11T00:01:25.479Z,935.42
2024-02-11T00:02:25.481Z,935.44
2024-02-11T00:03:25.484Z,935.43
2024-02-11T00:04:25.460Z,935.42
2024-02-11T00:05:25.487Z,935.48
2024-02-11T00:06:25.516Z,935.50
2024-02-11T00:07:25.404Z,935.48
2024-02-11T00:08:25.412Z,935.51
2024-02-11T00:09:25.413Z,935.49
2024-02-11T00:10:25.397Z,935.54
2024-02-11T00:11:25.403Z,935.48
2024-02-11T00:12:25.410Z,935.46
2024-02-11T00:13:25.360Z,935.51
2024-02-11T00:14:25.406Z,935.50
2024-02-11T00:15:25.332Z,935.53
2024-02-11T00:16:25.328Z,935.49
2024-02-11T00:17:25.315Z,935.55
2024-02-11T00:18:25.279Z,935.52
2024-02-11T00:19:25.323Z,935.47
2024-02-11T00:20:25.338Z,935.49
2024-02-11T00:21:25.267Z,935.50
2024-02-11T00:22:25.261Z,935.41
2024-02-11T00:23:25.240Z,935.42
2024-02-11T00:24:25.226Z,935.46
2024-02-11T00:25:25.245Z,935.50
2024-02-11T00:26:25.246Z,935.45
2024-02-11T00:27:25.198Z,935.39
2024-02-11T00:28:25.167Z,935.42
2024-02-11T00:29:25.154Z,935.36
2024-02-11T00:30:25.153Z,935.32
2024-02-11T00:31:25.136Z,935.32
2024-02-11T00:32:25.148Z,935.37
2024-02-11T00:33:25.247Z,935.36
2024-02-11T00:34:25.145Z,935.33
2024-02-11T00:35:25.108Z,935.36
2024-02-11T00:36:25.086Z,935.38
2024-02-11T00:37:25.073Z,935.40
2024-02-11T00:38:25.065Z,935.38
2024-02-11T00:39:25.091Z,935.35
2024-02-11T00:40:25.101Z,935.34
2024-02-11T00:41:25.075Z,935.36
2024-02-11T00:42:25.033Z,935.44
2024-02-11T00:43:25.011Z,935.59
2024-02-11T00:44:25.068Z,935.54
2024-02-11T00:45:24.986Z,935.57
2024-02-11T00:46:24.992Z,935.66
2024-02-11T00:47:25.067Z,935.54
2024-02-11T00:48:25.086Z,935.65
2024-02-11T00:49:24.936Z,935.67
2024-02-11T00:50:24.956Z,935.65
2024-02-11T00:51:24.952Z,935.64
2024-02-11T00:52:24.896Z,935.62
2024-02-11T00:53:25.017Z,935.67
2024-02-11T00:54:24.913Z,935.66
2024-02-11T00:55:24.896Z,935.67
2024-02-11T00:56:24.858Z,935.68
2024-02-11T00:57:24.898Z,935.72
2024-02-11T00:58:24.835Z,935.71
2024-02-11T00:59:24.820Z,935.69
2024-02-11T01:00:24.834Z,935.67
2024-02-11T01:01:24.829Z,935.68
2024-02-11T01:02:24.829Z,935.67
2024-02-11T01:03:24.790Z,935.70
2024-02-11T01:04:24.811Z,935.78
2024-02-11T01:05:24.810Z,935.79
2024-02-11T01:06:24.826Z,935.82
2024-02-11T01:07:24.800Z,935.81
2024-02-11T01:08:24.771Z,935.80
2024-02-11T01:09:24.702Z,935.84
2024-02-11T01:10:24.721Z,935.80
2024-02-11T01:11:24.719Z,935.83
2024-02-11T01:12:24.713Z,935.89
2024-02-11T01:13:24.680Z,935.91
2024-02-11T01:14:24.649Z,935.93
2024-02-11T01:15:24.640Z,935.98
2024-02-11T01:16:24.655Z,935.98
2024-02-11T01:17:24.668Z,936.00
2024-02-11T01:18:24.654Z,935.98
2024-02-11T01:19:24.607Z,936.00
2024-02-11T01:20:24.614Z,936.06
2024-02-11T01:21:24.630Z,936.13
2024-02-11T01:22:24.582Z,936.10
2024-02-11T01:23:24.620Z,936.14
2024-02-11T01:24:24.536Z,936.21
2024-02-11T01:25:24.530Z,936.21
2024-02-11T01:26:24.523Z,936.23
2024-02-11T01:27:24.517Z,936.25
2024-02-11T01:28:24.542Z,936.22
2024-02-11T01:29:24.534Z,936.24
2024-02-11T01:30:24.483Z,936.22
2024-02-11T01:31:24.454Z,936.28
2024-02-11T01:32:25.482Z,936.24
2024-02-11T01:33:24.493Z,936.29
2024-02-11T01:34:24.475Z,936.31
2024-02-11T01:35:24.509Z,936.35
2024-02-11T01:36:24.399Z,936.35
2024-02-11T01:37:24.396Z,936.37
2024-02-11T01:38:24.399Z,936.34
2024-02-11T01:39:24.471Z,936.36
2024-02-11T01:40:24.375Z,936.40
2024-02-11T01:41:24.352Z,936.40
2024-02-11T01:42:24.337Z,936.42
2024-02-11T01:43:24.348Z,936.40
2024-02-11T01:44:24.363Z,936.41
2024-02-11T01:45:24.337Z,936.45
2024-02-11T01:46:24.311Z,936.48
2024-02-11T01:47:24.302Z,936.45
2024-02-11T01:48:24.329Z,936.44
2024-02-11T01:49:24.261Z,936.43
2024-02-11T01:50:24.286Z,936.43
2024-02-11T01:51:24.258Z,936.44
2024-02-11T01:52:24.259Z,936.47
2024-02-11T01:53:24.213Z,936.47
2024-02-11T01:54:24.261Z,936.50
2024-02-11T01:55:24.209Z,936.46
2024-02-11T01:56:24.248Z,936.46
2024-02-11T01:57:24.179Z,936.48
2024-02-11T01:58:24.192Z,936.54
2024-02-11T01:59:24.146Z,936.46
2024-02-11T02:00:24.127Z,936.49
2024-02-11T02:01:24.224Z,936.53
2024-02-11T02:02:24.126Z,936.56
2024-02-11T02:03:24.122Z,936.55
2024-02-11T02:04:24.133Z,936.56
2024-02-11T02:05:24.319Z,936.57
2024-02-11T02:06:24.795Z,936.58
2024-02-11T02:07:24.098Z,936.54
2024-02-11T02:08:24.113Z,936.62
2024-02-11T02:09:24.060Z,936.65
2024-02-11T02:10:24.021Z,936.67
2024-02-11T02:11:24.002Z,936.68
2024-02-11T02:12:24.016Z,936.67
2024-02-11T02:13:24.031Z,936.78
2024-02-11T02:14:24.046Z,936.74
2024-02-11T02:15:24.032Z,936.71
2024-02-11T02:16:23.969Z,936.71
2024-02-11T02:17:24.056Z,936.71
2024-02-11T02:18:23.988Z,936.72
2024-02-11T02:19:23.962Z,936.72
2024-02-11T02:20:24.093Z,936.75
2024-02-11T02:21:23.893Z,936.78
2024-02-11T02:22:23.925Z,936.78
2024-02-11T02:23:24.429Z,936.80
2024-02-11T02:24:23.862Z,936.81
2024-02-11T02:25:23.872Z,936.89
2024-02-11T02:26:23.901Z,936.87
2024-02-11T02:27:23.857Z,936.87
2024-02-11T02:28:23.828Z,936.83
2024-02-11T02:29:23.853Z,936.85
2024-02-11T02:30:23.959Z,936.85
2024-02-11T02:31:23.810Z,936.82
2024-02-11T02:32:23.936Z,936.83
2024-02-11T02:33:23.869Z,936.80
2024-02-11T02:34:23.802Z,936.73
2024-02-11T02:35:24.043Z,936.82
2024-02-11T02:36:23.764Z,936.83
2024-02-11T02:37:23.750Z,936.82
2024-02-11T02:38:23.751Z,936.83
2024-02-11T02:39:23.710Z,936.83
2024-02-11T02:40:23.700Z,936.85
2024-02-11T02:41:23.668Z,936.82
2024-02-11T02:42:23.689Z,936.87
2024-02-11T02:43:23.653Z,936.91
2024-02-11T02:44:23.651Z,936.85
2024-02-11T02:45:23.655Z,936.88
2024-02-11T02:46:23.642Z,936.84
2024-02-11T02:47:23.689Z,936.86
2024-02-11T02:48:23.903Z,936.91
2024-02-11T02:49:23.601Z,936.89
2024-02-11T02:50:23.662Z,936.89
2024-02-11T02:51:23.603Z,936.89
2024-02-11T02:52:23.573Z,936.88
2024-02-11T02:53:23.556Z,936.93
2024-02-11T02:54:23.575Z,936.94
2024-02-11T02:55:23.512Z,936.90
2024-02-11T02:56:23.526Z,936.87
2024-02-11T02:57:23.506Z,936.92
2024-02-11T02:58:23.499Z,936.89
2024-02-11T02:59:23.490Z,936.96
2024-02-11T03:00:23.497Z,936.98
2024-02-11T03:01:23.456Z,937.00
2024-02-11T03:02:23.505Z,937.02
2024-02-11T03:03:23.482Z,937.04
2024-02-11T03:04:25.945Z,937.00
2024-02-11T03:05:24.187Z,937.02
2024-02-11T03:06:23.513Z,936.99
2024-02-11T03:07:23.434Z,937.01
2024-02-11T03:08:23.441Z,937.08
2024-02-11T03:09:23.371Z,937.09
2024-02-11T03:10:23.362Z,937.06
2024-02-11T03:11:23.329Z,937.09
2024-02-11T03:12:23.314Z,937.06
2024-02-11T03:13:23.339Z,937.10
2024-02-11T03:14:23.366Z,937.11
2024-02-11T03:15:23.290Z,937.11
2024-02-11T03:16:23.320Z,937.11
2024-02-11T03:17:23.367Z,937.10
2024-02-11T03:18:23.316Z,937.15
2024-02-11T03:19:23.268Z,937.18
2024-02-11T03:20:23.291Z,937.18
2024-02-11T03:21:23.248Z,937.12
2024-02-11T03:22:23.238Z,937.10
2024-02-11T03:23:23.266Z,937.15
2024-02-11T03:24:23.204Z,937.14
2024-02-11T03:25:23.227Z,937.12
2024-02-11T03:26:23.180Z,937.16
2024-02-11T03:27:23.175Z,937.20
2024-02-11T03:28:23.174Z,937.17
2024-02-11T03:29:23.128Z,937.20
2024-02-11T03:30:23.251Z,937.16
2024-02-11T03:31:23.112Z,937.25
2024-02-11T03:32:23.180Z,937.28
2024-02-11T03:33:23.257Z,937.27
2024-02-11T03:34:23.180Z,937.29
2024-02-11T03:35:23.106Z,937.38
2024-02-11T03:36:23.053Z,937.38
2024-02-11T03:37:23.082Z,937.43
2024-02-11T03:38:23.103Z,937.40
2024-02-11T03:39:23.049Z,937.41
2024-02-11T03:40:23.064Z,937.43
2024-02-11T03:41:22.991Z,937.43
2024-02-11T03:42:22.987Z,937.44
2024-02-11T03:43:22.968Z,937.39
2024-02-11T03:44:23.031Z,937.41
2024-02-11T03:45:22.978Z,937.42
2024-02-11T03:46:22.934Z,937.44
2024-02-11T03:47:23.193Z,937.42
2024-02-11T03:48:23.040Z,937.40
2024-02-11T03:49:22.913Z,937.39
2024-02-11T03:50:22.971Z,937.33
2024-02-11T03:51:22.920Z,937.33
2024-02-11T03:52:22.870Z,937.37
2024-02-11T03:53:23.006Z,937.37
2024-02-11T03:54:22.883Z,937.35
2024-02-11T03:55:22.850Z,937.37
2024-02-11T03:56:22.898Z,937.38
2024-02-11T03:57:22.869Z,937.43
2024-02-11T03:58:22.815Z,937.50
2024-02-11T03:59:22.873Z,937.48
2024-02-11T04:00:22.785Z,937.50
2024-02-11T04:01:22.781Z,937.51
2024-02-11T04:02:22.830Z,937.50
2024-02-11T04:03:23.196Z,937.52
2024-02-11T04:04:22.810Z,937.53
2024-02-11T04:05:22.823Z,937.50
2024-02-11T04:06:22.735Z,937.55
2024-02-11T04:07:22.718Z,937.49
2024-02-11T04:08:22.796Z,937.54
2024-02-11T04:09:22.714Z,937.50
2024-02-11T04:10:22.693Z,937.51
2024-02-11T04:11:22.722Z,937.47
2024-02-11T04:12:22.676Z,937.46
2024-02-11T04:13:22.654Z,937.49
2024-02-11T04:14:22.691Z,937.48
2024-02-11T04:15:22.614Z,937.48
2024-02-11T04:16:22.634Z,937.45
2024-02-11T04:17:22.592Z,937.51
2024-02-11T04:18:22.741Z,937.46
2024-02-11T04:19:22.631Z,937.49
2024-02-11T04:20:22.592Z,937.46
2024-02-11T04:21:22.636Z,937.52
2024-02-11T04:22:22.568Z,937.54
2024-02-11T04:23:22.626Z,937.53
2024-02-11T04:24:22.690Z,937.55
2024-02-11T04:25:22.516Z,937.56
2024-02-11T04:26:22.624Z,937.56
2024-02-11T04:27:22.486Z,937.59
2024-02-11T04:28:22.506Z,937.58
2024-02-11T04:29:22.588Z,937.62
2024-02-11T04:30:22.470Z,937.64
2024-02-11T04:31:22.478Z,937.66
2024-02-11T04:32:22.533Z,937.67
2024-02-11T04:33:22.691Z,937.67
2024-02-11T04:34:22.496Z,937.68
2024-02-11T04:35:22.538Z,937.68
2024-02-11T04:36:22.432Z,937.70
2024-02-11T04:37:22.388Z,937.73
2024-02-11T04:38:22.459Z,937.74
2024-02-11T04:39:22.370Z,937.76
2024-02-11T04:40:22.337Z,937.79
2024-02-11T04:41:22.469Z,937.81
2024-02-11T04:42:22.345Z,937.78
2024-02-11T04:43:22.297Z,937.81
2024-02-11T04:44:22.429Z,937.86
2024-02-11T04:45:22.273Z,937.80
2024-02-11T04:46:22.286Z,937.81
2024-02-11T04:47:22.333Z,937.81
2024-02-11T04:48:22.362Z,937.79
2024-02-11T04:49:22.230Z,937.87
2024-02-11T04:50:22.366Z,937.86
2024-02-11T04:51:22.220Z,937.88
2024-02-11T04:52:22.261Z,937.89
2024-02-11T04:53:22.286Z,937.88
2024-02-11T04:54:22.173Z,937.88
2024-02-11T04:55:22.174Z,937.91
2024-02-11T04:56:22.330Z,937.94
2024-02-11T04:57:22.174Z,937.91
2024-02-11T04:58:22.195Z,937.91
2024-02-11T04:59:22.260Z,937.95
2024-02-11T05:00:22.133Z,937.95
2024-02-11T05:01:22.116Z,937.96
2024-02-11T05:02:22.141Z,937.97
2024-02-11T05:03:22.100Z,937.97
2024-02-11T05:04:22.162Z,937.97
2024-02-11T05:05:22.225Z,937.97
2024-02-11T05:06:22.073Z,938.02
2024-02-11T05:07:22.040Z,938.01
2024-02-11T05:08:22.616Z,938.03
2024-02-11T05:09:22.042Z,938.03
2024-02-11T05:10:22.019Z,938.03
2024-02-11T05:11:22.043Z,938.07
2024-02-11T05:12:21.968Z,938.11
2024-02-11T05:13:22.004Z,938.07
2024-02-11T05:14:22.059Z,938.09
2024-02-11T05:15:21.971Z,938.12
2024-02-11T05:16:21.972Z,938.12
2024-02-11T05:17:21.957Z,938.22
2024-02-11T05:18:22.061Z,938.23
2024-02-11T05:19:21.900Z,938.27
2024-02-11T05:20:22.031Z,938.16
2024-02-11T05:21:21.904Z,938.32
2024-02-11T05:22:21.923Z,938.35
2024-02-11T05:23:21.929Z,938.41
2024-02-11T05:24:21.910Z,938.51
2024-02-11T05:25:21.842Z,938.50
2024-02-11T05:26:21.992Z,938.55
2024-02-11T05:27:21.900Z,938.45
2024-02-11T05:28:21.814Z,938.51
2024-02-11T05:29:21.840Z,938.52
2024-02-11T05:30:21.806Z,938.53
2024-02-11T05:31:21.788Z,938.58
2024-02-11T05:32:21.791Z,938.58
2024-02-11T05:33:22.323Z,938.59
2024-02-11T05:34:21.721Z,938.67
2024-02-11T05:35:21.746Z,938.62
2024-02-11T05:36:21.702Z,938.62
2024-02-11T05:37:21.711Z,938.70
2024-02-11T05:38:22.397Z,938.68
2024-02-11T05:39:21.873Z,938.72
2024-02-11T05:40:21.664Z,938.72
2024-02-11T05:41:21.830Z,938.79
2024-02-11T05:42:21.675Z,938.81
2024-02-11T05:43:21.638Z,938.80
2024-02-11T05:44:21.694Z,938.84
2024-02-11T05:45:21.621Z,938.81
2024-02-11T05:46:21.933Z,938.85
2024-02-11T05:47:21.604Z,938.89
2024-02-11T05:48:21.675Z,938.88
2024-02-11T05:49:21.596Z,938.90
2024-02-11T05:50:21.685Z,938.87
2024-02-11T05:51:21.593Z,938.95
2024-02-11T05:52:21.526Z,939.04
2024-02-11T05:53:21.695Z,938.99
2024-02-11T05:54:21.516Z,939.06
2024-02-11T05:55:21.522Z,939.07
2024-02-11T05:56:21.684Z,939.07
2024-02-11T05:57:21.519Z,939.14
2024-02-11T05:58:21.484Z,939.20
2024-02-11T05:59:21.520Z,939.17
2024-02-11T06:00:21.449Z,939.20
2024-02-11T06:01:21.614Z,939.18
2024-02-11T06:02:22.027Z,939.22
2024-02-11T06:03:21.398Z,939.23
2024-02-11T06:04:21.473Z,939.24
2024-02-11T06:05:21.429Z,939.27
2024-02-11T06:06:21.381Z,939.25
2024-02-11T06:07:21.498Z,939.25
2024-02-11T06:08:21.800Z,939.38
2024-02-11T06:09:21.353Z,939.33
2024-02-11T06:10:21.331Z,939.40
2024-02-11T06:11:21.460Z,939.40
2024-02-11T06:12:21.332Z,939.44
2024-02-11T06:13:21.345Z,939.41
2024-02-11T06:14:21.327Z,939.46
2024-02-11T06:15:21.305Z,939.45
2024-02-11T06:16:21.261Z,939.50
2024-02-11T06:17:21.314Z,939.53
2024-02-11T06:18:21.287Z,939.59
2024-02-11T06:19:21.348Z,939.55
2024-02-11T06:20:21.245Z,939.62
2024-02-11T06:21:21.216Z,939.54
2024-02-11T06:22:21.202Z,939.63
2024-02-11T06:23:21.265Z,939.65
2024-02-11T06:24:21.206Z,939.59
2024-02-11T06:25:21.217Z,939.71
2024-02-11T06:26:21.253Z,939.70
2024-02-11T06:27:21.133Z,939.72
2024-02-11T06:28:21.156Z,939.79
2024-02-11T06:29:21.222Z,939.75
2024-02-11T06:30:21.377Z,939.80
2024-02-11T06:31:21.098Z,939.80
2024-02-11T06:32:21.189Z,939.79
2024-02-11T06:33:21.260Z,939.86
2024-02-11T06:34:22.445Z,939.93
2024-02-11T06:35:22.057Z,939.99
2024-02-11T06:36:21.026Z,939.98
2024-02-11T06:37:21.020Z,940.02
2024-02-11T06:38:21.057Z,940.07
2024-02-11T06:39:21.042Z,940.18
2024-02-11T06:40:21.004Z,940.11
2024-02-11T06:41:21.147Z,940.14
2024-02-11T06:42:21.024Z,940.09
2024-02-11T06:43:20.962Z,940.15
2024-02-11T06:44:21.012Z,940.11
2024-02-11T06:45:20.952Z,940.20
2024-02-11T06:46:20.943Z,940.22
2024-02-11T06:47:21.147Z,940.19
2024-02-11T06:48:21.089Z,940.19
2024-02-11T06:49:20.920Z,940.14
2024-02-11T06:50:32.086Z,940.19
2024-02-11T06:51:20.893Z,940.17
2024-02-11T06:52:20.880Z,940.27
2024-02-11T06:53:20.972Z,940.23
2024-02-11T06:54:20.828Z,940.30
2024-02-11T06:55:21.594Z,940.31
2024-02-11T06:56:20.839Z,940.34
2024-02-11T06:57:20.821Z,940.39
2024-02-11T06:58:20.784Z,940.43
2024-02-11T06:59:20.846Z,940.47
2024-02-11T07:00:21.311Z,940.47
2024-02-11T07:01:20.790Z,940.41
2024-02-11T07:02:20.765Z,940.43
2024-02-11T07:03:20.807Z,940.42
2024-02-11T07:04:20.800Z,940.46
2024-02-11T07:05:20.948Z,940.46
2024-02-11T07:06:20.793Z,940.44
2024-02-11T07:07:20.687Z,940.46
2024-02-11T07:08:20.740Z,940.49
2024-02-11T07:09:20.692Z,940.45
2024-02-11T07:10:20.657Z,940.45
2024-02-11T07:11:20.718Z,940.45
2024-02-11T07:12:20.653Z,940.52
2024-02-11T07:13:20.629Z,940.46
2024-02-11T07:14:20.743Z,940.47
2024-02-11T07:15:20.808Z,940.54
2024-02-11T07:16:20.578Z,940.57
2024-02-11T07:17:20.632Z,940.57
2024-02-11T07:18:20.723Z,940.64
2024-02-11T07:19:20.571Z,940.67
2024-02-11T07:20:20.763Z,940.76
2024-02-11T07:21:20.544Z,940.70
2024-02-11T07:22:20.509Z,940.73
2024-02-11T07:23:20.688Z,940.75
2024-02-11T07:24:20.531Z,940.72
2024-02-11T07:25:20.498Z,940.84
2024-02-11T07:26:20.569Z,940.78
2024-02-11T07:27:20.482Z,940.83
2024-02-11T07:28:20.449Z,940.85
2024-02-11T07:29:20.546Z,940.89
2024-02-11T07:30:20.463Z,940.83
2024-02-11T07:31:20.445Z,940.87
2024-02-11T07:32:20.538Z,940.91
2024-02-11T07:33:20.730Z,940.94
2024-02-11T07:34:20.703Z,940.93
2024-02-11T07:35:20.512Z,940.98
2024-02-11T07:36:20.379Z,940.96
2024-02-11T07:37:20.509Z,940.97
2024-02-11T07:38:20.353Z,941.00
2024-02-11T07:39:20.323Z,941.05
2024-02-11T07:40:20.342Z,941.06
2024-02-11T07:41:20.523Z,941.04
2024-02-11T07:42:21.710Z,941.07
2024-02-11T07:43:20.320Z,941.09
2024-02-11T07:44:20.303Z,941.13
2024-02-11T07:45:20.257Z,941.14
2024-02-11T07:46:20.287Z,941.21
2024-02-11T07:47:20.276Z,941.20
2024-02-11T07:48:20.333Z,941.19
2024-02-11T07:49:20.214Z,941.20
2024-02-11T07:50:20.437Z,941.30
2024-02-11T07:51:20.222Z,941.21
2024-02-11T07:52:20.296Z,941.30
2024-02-11T07:53:20.295Z,941.32
2024-02-11T07:54:20.393Z,941.37
2024-02-11T07:55:20.137Z,941.41
2024-02-11T07:56:20.243Z,941.36
2024-02-11T07:57:20.207Z,941.38
2024-02-11T07:58:20.123Z,941.25
2024-02-11T07:59:20.357Z,941.25
2024-02-11T08:00:20.142Z,941.34
2024-02-11T08:01:20.288Z,941.42
2024-02-11T08:02:20.333Z,941.47
2024-02-11T08:03:22.252Z,941.41
2024-02-11T08:04:20.338Z,941.43
2024-02-11T08:05:20.206Z,941.48
2024-02-11T08:06:20.124Z,941.46
2024-02-11T08:07:20.009Z,941.57
2024-02-11T08:08:20.084Z,941.47
2024-02-11T08:09:20.036Z,941.48
2024-02-11T08:10:20.017Z,941.61
2024-02-11T08:11:20.123Z,941.53
2024-02-11T08:12:19.971Z,941.56
2024-02-11T08:13:19.937Z,941.60
2024-02-11T08:14:20.004Z,941.62
2024-02-11T08:15:19.928Z,941.65
2024-02-11T08:16:19.934Z,941.71
2024-02-11T08:17:20.108Z,941.67
2024-02-11T08:18:19.922Z,941.83
2024-02-11T08:19:19.918Z,941.81
2024-02-11T08:20:20.017Z,941.86
2024-02-11T08:21:19.901Z,941.96
2024-02-11T08:22:19.920Z,941.94
2024-02-11T08:23:19.932Z,941.96
2024-02-11T08:24:19.820Z,941.93
2024-02-11T08:25:19.897Z,942.01
2024-02-11T08:26:19.990Z,942.02
2024-02-11T08:27:19.825Z,942.10
2024-02-11T08:28:19.900Z,942.10
2024-02-11T08:29:19.873Z,942.08
2024-02-11T08:30:21.340Z,942.13
2024-02-11T08:31:19.842Z,942.06
2024-02-11T08:32:19.845Z,942.14
2024-02-11T08:33:19.872Z,942.12
2024-02-11T08:34:19.761Z,942.10
2024-02-11T08:35:19.780Z,942.06
2024-02-11T08:36:19.688Z,942.13
2024-02-11T08:37:19.734Z,942.10
2024-02-11T08:38:19.744Z,942.05
2024-02-11T08:39:19.680Z,942.09
2024-02-11T08:40:19.687Z,942.16
2024-02-11T08:41:19.753Z,942.16
2024-02-11T08:42:19.624Z,942.13
2024-02-11T08:43:19.700Z,942.19
2024-02-11T08:44:19.646Z,942.20
2024-02-11T08:45:19.610Z,942.17
2024-02-11T08:46:19.578Z,942.19
2024-02-11T08:47:19.581Z,942.23
2024-02-11T08:48:19.712Z,942.22
2024-02-11T08:49:19.601Z,942.20
2024-02-11T08:50:19.733Z,942.20
2024-02-11T08:51:19.546Z,942.21
2024-02-11T08:52:19.502Z,942.21
2024-02-11T08:53:19.634Z,942.28
2024-02-11T08:54:19.525Z,942.27
2024-02-11T08:55:19.490Z,942.26
2024-02-11T08:56:19.516Z,942.35
2024-02-11T08:57:19.488Z,942.36
2024-02-11T08:58:19.542Z,942.27
2024-02-11T08:59:19.456Z,942.33
2024-02-11T09:00:19.460Z,942.35
2024-02-11T09:01:19.454Z,942.35
2024-02-11T09:02:19.502Z,942.38
2024-02-11T09:03:19.434Z,942.44
2024-02-11T09:04:19.414Z,942.43
2024-02-11T09:05:19.441Z,942.45
2024-02-11T09:06:19.382Z,942.43
2024-02-11T09:07:19.350Z,942.46
2024-02-11T09:08:19.401Z,942.48
2024-02-11T09:09:19.315Z,942.50
2024-02-11T09:10:19.308Z,942.57
2024-02-11T09:11:19.323Z,942.46
2024-02-11T09:12:19.335Z,942.69
2024-02-11T09:13:19.339Z,942.60
2024-02-11T09:14:19.363Z,942.56
2024-02-11T09:15:19.344Z,942.61
2024-02-11T09:16:19.250Z,942.63
2024-02-11T09:17:19.507Z,942.67
2024-02-11T09:18:19.311Z,942.80
2024-02-11T09:19:19.395Z,942.80
2024-02-11T09:20:19.284Z,942.79
2024-02-11T09:21:19.278Z,942.76
2024-02-11T09:22:19.185Z,942.71
2024-02-11T09:23:19.244Z,942.74
2024-02-11T09:24:19.171Z,942.77
2024-02-11T09:25:19.330Z,942.76
2024-02-11T09:26:19.246Z,942.73
2024-02-11T09:27:19.147Z,942.72
2024-02-11T09:28:19.102Z,942.75
2024-02-11T09:29:19.272Z,942.73
2024-02-11T09:30:19.265Z,942.82
2024-02-11T09:31:19.126Z,942.79
2024-02-11T09:32:19.067Z,942.88
2024-02-11T09:33:19.258Z,942.89
2024-02-11T09:34:19.145Z,942.94
2024-02-11T09:35:19.245Z,942.90
2024-02-11T09:36:19.061Z,942.88
2024-02-11T09:37:18.997Z,942.93
2024-02-11T09:38:19.058Z,942.88
2024-02-11T09:39:18.987Z,942.91
2024-02-11T09:40:19.648Z,942.90
2024-02-11T09:41:19.080Z,942.97
2024-02-11T09:42:18.989Z,942.95
2024-02-11T09:43:18.988Z,942.99
2024-02-11T09:44:20.499Z,943.00
2024-02-11T09:45:19.749Z,943.05
2024-02-11T09:46:18.952Z,943.08
2024-02-11T09:47:19.183Z,943.07
2024-02-11T09:48:19.155Z,943.05
2024-02-11T09:49:18.978Z,943.07
2024-02-11T09:50:18.975Z,943.14
2024-02-11T09:51:18.846Z,943.15
2024-02-11T09:52:18.866Z,943.13
2024-02-11T09:53:19.028Z,943.11
2024-02-11T09:54:18.867Z,943.13
2024-02-11T09:55:18.887Z,943.15
2024-02-11T09:56:18.873Z,943.12
2024-02-11T09:57:18.784Z,943.15
2024-02-11T09:58:18.781Z,943.19
2024-02-11T09:59:18.969Z,943.20
2024-02-11T10:00:18.765Z,943.19
2024-02-11T10:01:18.812Z,943.21
2024-02-11T10:02:18.908Z,943.17
2024-02-11T10:03:18.813Z,943.20
2024-02-11T10:04:18.738Z,943.19
2024-02-11T10:05:18.814Z,943.18
2024-02-11T10:06:18.833Z,943.22
2024-02-11T10:07:18.672Z,943.22
2024-02-11T10:08:18.725Z,943.17
2024-02-11T10:09:19.493Z,943.22
2024-02-11T10:10:18.689Z,943.27
2024-02-11T10:11:18.773Z,943.25
2024-02-11T10:12:18.628Z,943.31
2024-02-11T10:13:19.094Z,943.35
2024-02-11T10:14:18.698Z,943.33
2024-02-11T10:15:19.267Z,943.31
2024-02-11T10:16:18.598Z,943.35
2024-02-11T10:17:18.688Z,943.40
2024-02-11T10:18:18.607Z,943.37
2024-02-11T10:19:18.613Z,943.44
2024-02-11T10:20:19.105Z,943.40
2024-02-11T10:21:18.597Z,943.38
2024-02-11T10:22:27.352Z,943.41
2024-02-11T10:23:19.739Z,943.40
2024-02-11T10:24:18.641Z,943.42
2024-02-11T10:25:18.478Z,943.43
2024-02-11T10:26:18.496Z,943.51
2024-02-11T10:27:18.492Z,943.43
2024-02-11T10:28:18.477Z,943.48
2024-02-11T10:29:18.434Z,943.44
2024-02-11T10:30:18.422Z,943.45
2024-02-11T10:31:18.426Z,943.46
2024-02-11T10:32:18.596Z,943.42
2024-02-11T10:33:18.455Z,943.45
2024-02-11T10:34:18.441Z,943.38
2024-02-11T10:35:18.411Z,943.46
2024-02-11T10:36:18.354Z,943.50
2024-02-11T10:37:18.344Z,943.42
2024-02-11T10:38:18.468Z,943.45
2024-02-11T10:39:18.445Z,943.49
2024-02-11T10:40:18.372Z,943.49
2024-02-11T10:41:18.714Z,943.50
2024-02-11T10:42:18.305Z,943.52
2024-02-11T10:43:18.285Z,943.51
2024-02-11T10:44:18.359Z,943.50
2024-02-11T10:45:18.308Z,943.51
2024-02-11T10:46:18.226Z,943.53
2024-02-11T10:47:18.438Z,943.55
2024-02-11T10:48:18.349Z,943.61
2024-02-11T10:49:18.262Z,943.61
2024-02-11T10:50:18.256Z,943.60
2024-02-11T10:51:18.181Z,943.58
2024-02-11T10:52:18.172Z,943.60
2024-02-11T10:53:18.236Z,943.55
2024-02-11T10:54:18.149Z,943.57
2024-02-11T10:55:18.154Z,943.57
2024-02-11T10:56:18.204Z,943.57
2024-02-11T10:57:18.099Z,943.55
2024-02-11T10:58:18.200Z,943.52
2024-02-11T10:59:18.105Z,943.54
2024-02-11T11:00:18.083Z,943.60
2024-02-11T11:01:18.098Z,943.55
2024-02-11T11:02:18.117Z,943.56
2024-02-11T11:03:18.149Z,943.59
2024-02-11T11:04:18.043Z,943.60
2024-02-11T11:05:18.062Z,943.62
2024-02-11T11:06:18.066Z,943.62
2024-02-11T11:07:18.037Z,943.56
2024-02-11T11:08:18.055Z,943.59
2024-02-11T11:09:17.976Z,943.54
2024-02-11T11:10:18.062Z,943.59
2024-02-11T11:11:18.031Z,943.58
2024-02-11T11:12:17.971Z,943.53
2024-02-11T11:13:17.974Z,943.56
2024-02-11T11:14:17.953Z,943.55
2024-02-11T11:15:17.986Z,943.54
2024-02-11T11:16:17.997Z,943.58
2024-02-11T11:17:18.054Z,943.50
2024-02-11T11:18:17.951Z,943.57
2024-02-11T11:19:17.961Z,943.54
2024-02-11T11:20:17.889Z,943.53
2024-02-11T11:21:17.856Z,943.62
2024-02-11T11:22:17.835Z,943.57
2024-02-11T11:23:17.972Z,943.58
2024-02-11T11:24:17.846Z,943.53
2024-02-11T11:25:17.786Z,943.51
2024-02-11T11:26:17.812Z,943.54
2024-02-11T11:27:17.792Z,943.50
2024-02-11T11:28:17.776Z,943.55
2024-02-11T11:29:17.982Z,943.57
2024-02-11T11:30:17.781Z,943.53
2024-02-11T11:31:17.804Z,943.51
2024-02-11T11:32:17.892Z,943.56
2024-02-11T11:33:17.740Z,943.55
2024-02-11T11:34:17.758Z,943.53
2024-02-11T11:35:17.826Z,943.55
2024-02-11T11:36:17.685Z,943.52
2024-02-11T11:37:17.776Z,943.57
2024-02-11T11:38:17.706Z,943.58
2024-02-11T11:39:17.645Z,943.56
2024-02-11T11:40:17.653Z,943.57
2024-02-11T11:41:17.723Z,943.58
2024-02-11T11:42:17.595Z,943.54
2024-02-11T11:43:17.668Z,943.60
2024-02-11T11:44:17.641Z,943.54
2024-02-11T11:45:17.585Z,943.55
2024-02-11T11:46:17.583Z,943.56
2024-02-11T11:47:17.654Z,943.59
2024-02-11T11:48:17.680Z,943.58
2024-02-11T11:49:17.684Z,943.57
2024-02-11T11:50:17.569Z,943.55
2024-02-11T11:51:17.514Z,943.56
2024-02-11T11:52:17.541Z,943.60
2024-02-11T11:53:17.562Z,943.58
2024-02-11T11:54:17.460Z,943.60
2024-02-11T11:55:17.481Z,943.60
2024-02-11T11:56:17.484Z,943.65
2024-02-11T11:57:17.455Z,943.56
2024-02-11T11:58:17.469Z,943.62
2024-02-11T11:59:17.501Z,943.57
2024-02-11T12:00:17.410Z,943.66
2024-02-11T12:01:18.138Z,943.62
2024-02-11T12:02:17.410Z,943.66
2024-02-11T12:03:17.425Z,943.62
2024-02-11T12:04:17.398Z,943.58
2024-02-11T12:05:17.431Z,943.64
2024-02-11T12:06:17.406Z,943.63
2024-02-11T12:07:17.321Z,943.63
2024-02-11T12:08:19.086Z,943.63
2024-02-11T12:09:17.350Z,943.61
2024-02-11T12:10:17.342Z,943.58
2024-02-11T12:11:17.303Z,943.62
2024-02-11T12:12:17.288Z,943.59
2024-02-11T12:13:17.324Z,943.61
2024-02-11T12:14:17.289Z,943.59
2024-02-11T12:15:17.265Z,943.65
2024-02-11T12:16:17.447Z,943.69
2024-02-11T12:17:17.437Z,943.67
2024-02-11T12:18:17.245Z,943.62
2024-02-11T12:19:17.273Z,943.68
2024-02-11T12:20:17.245Z,943.67
2024-02-11T12:21:17.205Z,943.68
2024-02-11T12:22:17.147Z,943.63
2024-02-11T12:23:17.252Z,943.65
2024-02-11T12:24:17.580Z,943.67
2024-02-11T12:25:17.166Z,943.66
2024-02-11T12:26:17.189Z,943.67
2024-02-11T12:27:17.149Z,943.62
2024-02-11T12:28:17.096Z,943.71